Albury
Weather
Information

and Archive.
Albury Local Internet Skycam This service provided and funded by Albury Local Internet

Help keep our weatherstation running:

Lavington Weatherstation live data - Conditions of Use

Last updated on 01-Aug-2021 at 20:05:07
Temperature
  Currently  8.0 degrees C
  Apparent Temperature ("Wind Chill") is 6.4 degrees C
  Today has ranged from  7.8 at 08:43 to 13.8 at 00:52
  Yesterday ranged from  6.9 at 02:08 to 15.9 at 14:25
Wind
  Now:    3.7kmh, gusting to   7.5kmh from 324 degrees ( NW)
  Hour:   3.8kmh, gusting to   7.5kmh
Rainfall
   3.8mm Midnight to Midnight (ie, yesterday)
   2.6mm Since Midnight (ie, so far today)
   2.6mm 9am yesterday to 9am today
   2.6mm Total this month
Misc items
  Relative humidity is 87%
  Dewpoint is 6.0 deg C
  Estimated Cloudbase is 800 feet
  Barometric Pressure is 1016.0 mbar
  Solar Insolation: 0 W/m^2
  UV Index: 0.0 (Low)
  Dust: PM2.5 13.2ug/m3 PM10 26.2ug/m3   AQI 52 (Moderate)
Top Solar flares in the last 24 hours

Last 24 hours Temperature Graph (click graph for history)
temperature

Last 24 hours Dynamic Wind display (click image for 4-hour image):
Wind Rose

Current Yarrawonga Weather Radar and Infrared Satellite Images from the BOM.

Hourly summaries in the tables below are cumulative and peak values
for the preceding hour, and instantaneous values at the hour.
So far today, 01-Aug-2021
Time   Barom.  Wind + Gust    Direction   RH   Rain    Temp.  Minimum    Maximum
01:00  1006.0   8.3  23.9kmh  182 ( S )   99%  0.0mm    9.3   9.4@00:59 13.8@00:52
02:00  1005.0   8.5  23.9kmh  241 (WSW)   91%  0.0mm   11.9   9.3@01:00 12.7@01:33
03:00  1006.0   4.8  13.7kmh  288 (WNW)   96%  0.0mm   11.0  11.0@02:43 11.9@02:00
04:00  1006.0   4.0  25.1kmh  240 (WSW)  100%  0.4mm   10.4  10.3@03:33 11.0@03:00
05:00  1007.0  13.2  33.4kmh  212 (SSW)  100%  2.0mm    9.3   9.3@04:56 10.4@04:00
06:00  1007.0   5.6  10.7kmh  220 ( SW)  100%  0.0mm    8.8   8.8@05:49  9.3@05:00
07:00  1007.0   5.7  12.6kmh  332 (NNW)  100%  0.2mm    8.4   8.5@06:56  8.8@06:00
08:00  1008.0   5.1  13.7kmh  349 ( N )  100%  0.0mm    8.0   8.0@07:58  8.5@07:31
09:00  1010.0   8.2  27.7kmh  244 (WSW)  100%  0.0mm    8.0   7.8@08:43  8.2@08:14
10:00  1010.0  13.9  28.9kmh  209 (SSW)  100%  0.0mm    8.3   8.0@09:00  8.3@09:42
11:00  1011.0  13.9  36.6kmh  208 (SSW)   92%  0.0mm   10.6   8.2@10:01 10.5@10:53
12:00  1011.0  16.3  38.6kmh  190 ( S )   76%  0.0mm   11.7  10.6@11:00 11.8@11:58
13:00  1011.0  16.8  35.2kmh  244 (WSW)   69%  0.0mm   12.3  11.6@12:07 12.7@12:55
14:00  1011.0  14.1  32.7kmh  195 (SSW)   70%  0.0mm   12.6  12.3@13:00 13.1@13:34
15:00  1012.0  14.5  31.8kmh  200 (SSW)   71%  0.0mm   12.6  12.3@14:21 13.2@14:35
16:00  1013.0  13.9  32.9kmh  219 ( SW)   66%  0.0mm   12.1  12.2@15:57 13.0@15:06
17:00  1014.0  10.5  27.8kmh  212 (SSW)   74%  0.0mm   11.4  11.4@16:57 12.3@16:03
18:00  1015.0   6.7  17.7kmh  267 ( W )   81%  0.0mm    9.4   9.4@17:56 11.4@17:00
19:00  1016.0   7.1  16.6kmh  251 (WSW)   79%  0.0mm    9.2   9.1@18:16  9.5@18:02
20:00  1016.0   5.3  15.3kmh  295 (WNW)   87%  0.0mm    8.0   8.0@19:53  9.3@19:12
20:05  1016.0   3.8   7.5kmh  331 (NNW)   87%  0.0mm    8.0   8.0@20:00  8.1@20:01


Summary for yesterday, 31-Jul-2021
Time   Barom.  Wind + Gust    Direction   RH   Rain    Temp.  Minimum    Maximum
01:00  1016.0   8.1  18.7kmh   42 ( NE)   90%  0.4mm    8.4   8.5@00:59  9.5@00:05
02:00  1015.0   3.8  17.9kmh  349 ( N )  100%  0.2mm    7.1   7.0@01:39  8.6@01:15
03:00  1015.0   7.0  22.4kmh   35 ( NE)   97%  1.4mm    8.0   6.9@02:08  8.3@02:33
04:00  1014.0  12.4  25.2kmh   29 (NNE)   98%  0.4mm    8.0   7.8@03:04  8.2@03:21
05:00  1013.0   7.0  29.6kmh   43 ( NE)   96%  0.4mm    8.4   7.1@04:30  8.5@04:58
06:00  1013.0   9.6  26.8kmh   20 (NNE)   94%  0.2mm    8.5   8.1@05:09  8.9@05:37
07:00  1013.0   9.7  25.2kmh   99 ( E )   96%  0.8mm    8.3   8.0@06:45  8.6@06:08
08:00  1012.0   9.9  24.2kmh   19 (NNE)   91%  0.0mm    9.3   8.0@07:03  9.3@07:51
09:00  1012.0   8.4  23.7kmh   46 ( NE)   89%  0.0mm    9.9   8.6@08:13  9.9@08:58
10:00  1011.0  11.3  25.2kmh   26 (NNE)   82%  0.0mm   11.5   9.9@09:00 11.5@09:59
11:00  1010.0  10.8  27.8kmh   11 ( N )   78%  0.0mm   12.2  11.2@10:10 12.1@10:58
12:00  1010.0  12.2  27.6kmh    8 ( N )   73%  0.0mm   13.8  12.2@11:00 14.2@11:25
13:00  1008.0  11.8  30.1kmh  349 ( N )   68%  0.0mm   14.8  13.8@12:00 15.1@12:46
14:00  1008.0   9.6  26.7kmh  335 (NNW)   73%  0.0mm   14.8  14.3@13:06 15.8@13:36
15:00  1007.0   7.7  22.9kmh  323 ( NW)   66%  0.0mm   15.5  14.8@14:00 15.9@14:25
16:00  1007.0   9.0  24.1kmh  358 ( N )   73%  0.0mm   14.8  14.7@15:49 15.5@15:00
17:00  1007.0   7.4  15.9kmh   21 (NNE)   81%  0.0mm   13.8  13.8@16:59 15.1@16:06
18:00  1007.0   5.9  11.1kmh  359 ( N )   86%  0.0mm   12.7  12.5@17:50 14.0@17:02
19:00  1008.0   5.3  22.4kmh   23 (NNE)   84%  0.0mm   12.8  12.4@18:44 13.1@18:29
20:00  1008.0  12.5  24.2kmh   29 (NNE)   88%  0.0mm   12.2  12.3@19:38 13.0@19:03
21:00  1007.0  11.8  21.5kmh   28 (NNE)   92%  0.0mm   11.5  11.3@20:53 12.3@20:09
22:00  1008.0   6.1  19.1kmh  359 ( N )   86%  0.0mm   12.7  11.3@21:01 13.0@21:50
23:00  1007.0   5.9  17.2kmh    6 ( N )   92%  0.0mm   11.7   9.4@22:50 13.1@22:30
00:00  1006.0   5.1  22.4kmh  327 (NNW)   86%  0.0mm   12.6  11.7@23:00 12.8@23:23